createdAt,value
2018-07-02T00:00:57.857Z,11.3
2018-07-02T00:01:59.868Z,11.3
2018-07-02T00:03:01.864Z,11.2
2018-07-02T00:04:03.866Z,11.2
2018-07-02T00:05:06.240Z,11.1
2018-07-02T00:06:08.629Z,11.1
2018-07-02T00:07:10.971Z,11.1
2018-07-02T00:08:13.289Z,11.1
2018-07-02T00:09:15.304Z,11.1
2018-07-02T00:10:18.115Z,11.1
2018-07-02T00:11:20.110Z,11.1
2018-07-02T00:12:22.412Z,11.1
2018-07-02T00:13:24.740Z,11
2018-07-02T00:14:26.745Z,11
2018-07-02T00:15:28.735Z,10.9
2018-07-02T00:16:30.731Z,10.9
2018-07-02T00:17:32.734Z,10.9
2018-07-02T00:18:34.737Z,10.8
2018-07-02T00:19:36.726Z,10.8
2018-07-02T00:20:38.720Z,10.8
2018-07-02T00:21:40.720Z,10.7
2018-07-02T00:22:43.101Z,10.7
2018-07-02T00:23:45.089Z,10.6
2018-07-02T00:24:47.387Z,10.6
2018-07-02T00:25:49.922Z,10.5
2018-07-02T00:26:51.882Z,10.5
2018-07-02T00:27:54.266Z,10.5
2018-07-02T00:28:56.270Z,10.4
2018-07-02T00:29:58.688Z,10.5
2018-07-02T00:31:00.669Z,10.4
2018-07-02T00:32:02.662Z,10.4
2018-07-02T00:33:04.981Z,10.4
2018-07-02T00:34:06.978Z,10.4
2018-07-02T00:35:08.964Z,10.3
2018-07-02T00:36:10.962Z,10.3
2018-07-02T00:37:13.280Z,10.3
2018-07-02T00:38:15.277Z,10.2
2018-07-02T00:39:17.276Z,10.2
2018-07-02T00:40:19.258Z,10.2
2018-07-02T00:41:21.651Z,10.2
2018-07-02T00:42:23.639Z,10.2
2018-07-02T00:43:25.631Z,10.1
2018-07-02T00:44:27.633Z,10.1
2018-07-02T00:45:29.614Z,10.1
2018-07-02T00:46:31.616Z,10.1
2018-07-02T00:47:33.606Z,10.1
2018-07-02T00:48:35.599Z,10.1
2018-07-02T00:49:37.611Z,10
2018-07-02T00:50:39.599Z,10
2018-07-02T00:51:41.594Z,10
2018-07-02T00:52:43.578Z,10
2018-07-02T00:53:45.570Z,10
2018-07-02T00:54:47.562Z,10
2018-07-02T00:55:50.596Z,10
2018-07-02T00:56:52.607Z,9.9
2018-07-02T00:57:54.598Z,9.9
2018-07-02T00:58:57.209Z,9.9
2018-07-02T00:59:59.202Z,9.9
2018-07-02T01:01:01.194Z,9.9
2018-07-02T01:02:03.866Z,9.9
2018-07-02T01:03:05.865Z,9.9
2018-07-02T01:04:08.155Z,9.9
2018-07-02T01:05:10.167Z,9.8
2018-07-02T01:06:12.152Z,9.8
2018-07-02T01:07:14.151Z,9.7
2018-07-02T01:08:16.141Z,9.7
2018-07-02T01:09:18.127Z,9.7
2018-07-02T01:10:20.123Z,9.7
2018-07-02T01:11:22.112Z,9.7
2018-07-02T01:12:24.105Z,9.7
2018-07-02T01:13:26.095Z,9.7
2018-07-02T01:14:28.081Z,9.7
2018-07-02T01:15:30.065Z,9.7
2018-07-02T01:16:32.059Z,9.7
2018-07-02T01:17:34.055Z,9.7
2018-07-02T01:18:36.052Z,9.7
2018-07-02T01:19:38.366Z,9.7
2018-07-02T01:20:40.358Z,9.7
2018-07-02T01:21:43.214Z,9.6
2018-07-02T01:22:45.222Z,9.6
2018-07-02T01:23:47.211Z,9.6
2018-07-02T01:24:49.417Z,9.6
2018-07-02T01:25:51.417Z,9.6
2018-07-02T01:26:53.409Z,9.5
2018-07-02T01:27:55.409Z,9.6
2018-07-02T01:28:57.407Z,9.6
2018-07-02T01:29:59.408Z,9.5
2018-07-02T01:31:01.403Z,9.5
2018-07-02T01:32:03.382Z,9.5
2018-07-02T01:33:05.375Z,9.6
2018-07-02T01:34:07.374Z,9.6
2018-07-02T01:35:09.366Z,9.6
2018-07-02T01:36:11.365Z,9.6
2018-07-02T01:37:13.364Z,9.6
2018-07-02T01:38:15.744Z,9.5
2018-07-02T01:39:18.577Z,9.5
2018-07-02T01:40:20.572Z,9.5
2018-07-02T01:41:22.555Z,9.5
2018-07-02T01:42:24.562Z,9.4
2018-07-02T01:43:26.546Z,9.4
2018-07-02T01:44:28.555Z,9.4
2018-07-02T01:45:30.532Z,9.4
2018-07-02T01:46:33.255Z,9.5
2018-07-02T01:47:35.248Z,9.5
2018-07-02T01:48:37.235Z,9.4
2018-07-02T01:49:39.231Z,9.4
2018-07-02T01:50:41.219Z,9.4
2018-07-02T01:51:43.210Z,9.4
2018-07-02T01:52:45.208Z,9.4
2018-07-02T01:53:47.507Z,9.4
2018-07-02T01:54:49.841Z,9.4
2018-07-02T01:55:51.823Z,9.3
2018-07-02T01:56:53.814Z,9.4
2018-07-02T01:57:55.819Z,9.4
2018-07-02T01:58:57.813Z,9.4
2018-07-02T01:59:59.808Z,9.4
2018-07-02T02:01:02.596Z,9.4
2018-07-02T02:02:04.590Z,9.4
2018-07-02T02:03:06.591Z,9.4
2018-07-02T02:04:08.562Z,9.3
2018-07-02T02:05:11.203Z,9.3
2018-07-02T02:06:13.198Z,9.3
2018-07-02T02:07:15.495Z,9.3
2018-07-02T02:08:17.488Z,9.3
2018-07-02T02:09:19.478Z,9.3
2018-07-02T02:10:21.475Z,9.3
2018-07-02T02:11:23.465Z,9.3
2018-07-02T02:12:25.460Z,9.3
2018-07-02T02:13:27.734Z,9.3
2018-07-02T02:14:29.733Z,9.3
2018-07-02T02:15:31.728Z,9.3
2018-07-02T02:16:34.033Z,9.2
2018-07-02T02:17:36.335Z,9.2
2018-07-02T02:18:38.329Z,9.2
2018-07-02T02:19:40.307Z,9.2
2018-07-02T02:20:42.312Z,9.1
2018-07-02T02:21:44.306Z,9.1
2018-07-02T02:22:46.324Z,9.1
2018-07-02T02:23:48.302Z,9.1
2018-07-02T02:24:50.298Z,9.1
2018-07-02T02:25:52.290Z,9.1
2018-07-02T02:26:54.275Z,9.2
2018-07-02T02:27:56.258Z,9.2
2018-07-02T02:28:58.264Z,9.3
2018-07-02T02:30:00.916Z,9.3
2018-07-02T02:31:03.603Z,9.4
2018-07-02T02:32:06.191Z,9.4
2018-07-02T02:33:08.190Z,9.4
2018-07-02T02:34:10.191Z,9.4
2018-07-02T02:35:12.189Z,9.4
2018-07-02T02:36:15.166Z,9.5
2018-07-02T02:37:17.470Z,9.5
2018-07-02T02:38:19.511Z,9.6
2018-07-02T02:39:21.456Z,9.6
2018-07-02T02:40:23.454Z,9.5
2018-07-02T02:41:25.438Z,9.5
2018-07-02T02:42:27.431Z,9.4
2018-07-02T02:43:30.114Z,9.4
2018-07-02T02:44:32.102Z,9.4
2018-07-02T02:45:34.426Z,9.4
2018-07-02T02:46:37.089Z,9.4
2018-07-02T02:47:39.094Z,9.4
2018-07-02T02:48:41.810Z,9.4
2018-07-02T02:49:44.094Z,9.4
2018-07-02T02:50:46.097Z,9.3
2018-07-02T02:51:48.090Z,9.3
2018-07-02T02:52:50.713Z,9.3
2018-07-02T02:53:52.716Z,9.3
2018-07-02T02:54:54.703Z,9.3
2018-07-02T02:55:57.001Z,9.3
2018-07-02T02:56:58.995Z,9.3
2018-07-02T02:58:00.981Z,9.3
2018-07-02T02:59:02.988Z,9.2
2018-07-02T03:00:04.963Z,9.2
2018-07-02T03:01:06.958Z,9.2
2018-07-02T03:02:08.951Z,9.2
2018-07-02T03:03:10.945Z,9.2
2018-07-02T03:04:12.949Z,9.2
2018-07-02T03:05:16.043Z,9.2
2018-07-02T03:06:18.037Z,9.2
2018-07-02T03:07:20.043Z,9.2
2018-07-02T03:08:22.032Z,9.2
2018-07-02T03:09:25.080Z,9.2
2018-07-02T03:10:27.684Z,9.2
2018-07-02T03:11:30.015Z,9.2
2018-07-02T03:12:32.624Z,9.2
2018-07-02T03:13:34.920Z,9.1
2018-07-02T03:14:36.914Z,9.1
2018-07-02T03:15:38.902Z,9.1
2018-07-02T03:16:41.609Z,9.1
2018-07-02T03:17:43.986Z,9.1
2018-07-02T03:18:46.287Z,9.1
2018-07-02T03:19:48.290Z,9.1
2018-07-02T03:20:50.563Z,9.1
2018-07-02T03:21:53.475Z,9.1
2018-07-02T03:22:55.754Z,9.1
2018-07-02T03:23:58.359Z,9.1
2018-07-02T03:25:00.356Z,9.2
2018-07-02T03:26:02.353Z,9.2
2018-07-02T03:27:04.352Z,9.2
2018-07-02T03:28:06.342Z,9.2
2018-07-02T03:29:08.977Z,9.2
2018-07-02T03:30:11.661Z,9.2
2018-07-02T03:31:14.552Z,9.2
2018-07-02T03:32:16.841Z,9.3
2018-07-02T03:33:18.826Z,9.3
2018-07-02T03:34:20.810Z,9.3
2018-07-02T03:35:23.186Z,9.3
2018-07-02T03:36:25.487Z,9.3
2018-07-02T03:37:27.477Z,9.3
2018-07-02T03:38:29.475Z,9.3
2018-07-02T03:39:31.466Z,9.3
2018-07-02T03:40:33.450Z,9.4
2018-07-02T03:41:35.443Z,9.4
2018-07-02T03:42:37.452Z,9.5
2018-07-02T03:43:39.450Z,9.6
2018-07-02T03:44:41.439Z,9.7
2018-07-02T03:45:43.821Z,9.6
2018-07-02T03:46:46.194Z,9.7
2018-07-02T03:47:48.187Z,9.7
2018-07-02T03:48:50.509Z,9.7
2018-07-02T03:49:52.790Z,9.7
2018-07-02T03:50:54.789Z,9.7
2018-07-02T03:51:56.798Z,9.7
2018-07-02T03:52:58.781Z,9.7
2018-07-02T03:54:00.777Z,9.7
2018-07-02T03:55:02.777Z,9.8
2018-07-02T03:56:04.775Z,9.8
2018-07-02T03:57:06.765Z,9.8
2018-07-02T03:58:08.750Z,9.7
2018-07-02T03:59:10.746Z,9.8
2018-07-02T04:00:12.740Z,9.8
2018-07-02T04:01:14.789Z,9.8
2018-07-02T04:02:16.725Z,9.9
2018-07-02T04:03:18.720Z,9.9
2018-07-02T04:04:20.716Z,9.9
2018-07-02T04:05:22.708Z,10.1
2018-07-02T04:06:24.703Z,10.1
2018-07-02T04:07:27.021Z,10.2
2018-07-02T04:08:29.319Z,10.3
2018-07-02T04:09:31.308Z,10.3
2018-07-02T04:10:33.302Z,10.3
2018-07-02T04:11:35.293Z,10.3
2018-07-02T04:12:37.294Z,10.3
2018-07-02T04:13:39.278Z,10.4
2018-07-02T04:14:41.292Z,10.4
2018-07-02T04:15:44.260Z,10.4
2018-07-02T04:16:47.050Z,10.5
2018-07-02T04:17:49.431Z,10.5
2018-07-02T04:18:51.426Z,10.6
2018-07-02T04:19:53.425Z,10.5
2018-07-02T04:20:55.419Z,10.5
2018-07-02T04:21:57.715Z,10.5
2018-07-02T04:22:59.727Z,10.5
2018-07-02T04:24:01.718Z,10.5
2018-07-02T04:25:03.700Z,10.5
2018-07-02T04:26:05.707Z,10.6
2018-07-02T04:27:07.698Z,10.6
2018-07-02T04:28:09.699Z,10.7
2018-07-02T04:29:12.327Z,10.7
2018-07-02T04:30:14.327Z,10.7
2018-07-02T04:31:16.321Z,10.8
2018-07-02T04:32:18.327Z,10.8
2018-07-02T04:33:20.311Z,10.8
2018-07-02T04:34:22.314Z,10.9
2018-07-02T04:35:24.631Z,10.9
2018-07-02T04:36:26.624Z,10.9
2018-07-02T04:37:29.433Z,10.9
2018-07-02T04:38:31.721Z,11
2018-07-02T04:39:34.102Z,11.1
2018-07-02T04:40:36.748Z,11.1
2018-07-02T04:41:39.551Z,11.1
2018-07-02T04:42:41.935Z,11.1
2018-07-02T04:43:43.916Z,11.3
2018-07-02T04:44:45.920Z,11.4
2018-07-02T04:45:47.913Z,11.5
2018-07-02T04:46:49.913Z,11.6
2018-07-02T04:47:51.916Z,11.7
2018-07-02T04:48:53.907Z,11.7
2018-07-02T04:49:55.914Z,11.7
2018-07-02T04:50:57.910Z,11.8
2018-07-02T04:51:59.912Z,11.7
2018-07-02T04:53:02.629Z,11.8
2018-07-02T04:54:04.624Z,11.9
2018-07-02T04:55:06.614Z,12
2018-07-02T04:56:08.606Z,12
2018-07-02T04:57:10.608Z,12.1
2018-07-02T04:58:12.606Z,12.2
2018-07-02T04:59:14.602Z,12.4
2018-07-02T05:00:16.604Z,12.4
2018-07-02T05:01:18.597Z,12.4
2018-07-02T05:02:20.597Z,12.5
2018-07-02T05:03:22.587Z,12.5
2018-07-02T05:04:24.865Z,12.6
2018-07-02T05:05:26.847Z,12.6
2018-07-02T05:06:28.843Z,12.7
2018-07-02T05:07:30.860Z,12.7
2018-07-02T05:08:32.838Z,12.8
2018-07-02T05:09:34.840Z,12.8
2018-07-02T05:10:36.837Z,12.8
2018-07-02T05:11:39.148Z,12.9
2018-07-02T05:12:41.151Z,12.9
2018-07-02T05:13:43.347Z,13
2018-07-02T05:14:45.151Z,13
2018-07-02T05:15:47.148Z,13.1
2018-07-02T05:16:49.146Z,13.2
2018-07-02T05:17:51.151Z,13.2
2018-07-02T05:18:53.200Z,13.3
2018-07-02T05:19:55.143Z,13.3
2018-07-02T05:20:57.140Z,13.5
2018-07-02T05:21:59.132Z,13.5
2018-07-02T05:23:01.516Z,13.6
2018-07-02T05:24:03.504Z,13.7
2018-07-02T05:25:05.507Z,13.9
2018-07-02T05:26:07.508Z,13.9
2018-07-02T05:27:09.503Z,13.9
2018-07-02T05:28:11.495Z,13.9
2018-07-02T05:29:13.774Z,13.9
2018-07-02T05:30:15.775Z,14
2018-07-02T05:31:17.788Z,14
2018-07-02T05:32:20.050Z,14.1
2018-07-02T05:33:22.055Z,14.1
2018-07-02T05:34:24.054Z,14.2
2018-07-02T05:35:26.053Z,14.2
2018-07-02T05:36:28.057Z,14.4
2018-07-02T05:37:30.051Z,14.4
2018-07-02T05:38:32.058Z,14.5
2018-07-02T05:39:34.055Z,14.6
2018-07-02T05:40:36.053Z,14.6
2018-07-02T05:41:38.058Z,14.6
2018-07-02T05:42:40.050Z,14.7
2018-07-02T05:43:42.044Z,14.7
2018-07-02T05:44:44.050Z,14.8
2018-07-02T05:45:46.029Z,14.8
2018-07-02T05:46:48.034Z,14.9
2018-07-02T05:47:50.041Z,14.9
2018-07-02T05:48:52.321Z,15
2018-07-02T05:49:54.317Z,15.1
2018-07-02T05:50:56.697Z,15.1
2018-07-02T05:51:58.984Z,15.1
2018-07-02T05:53:00.980Z,15.2
2018-07-02T05:54:03.924Z,15.2
2018-07-02T05:55:05.929Z,15.3
2018-07-02T05:56:07.926Z,15.4
2018-07-02T05:57:09.920Z,15.5
2018-07-02T05:58:11.916Z,15.6
2018-07-02T05:59:14.031Z,15.6
2018-07-02T06:00:16.234Z,15.7
2018-07-02T06:01:18.537Z,15.8
2018-07-02T06:02:20.976Z,15.8
2018-07-02T06:03:23.096Z,15.9
2018-07-02T06:04:25.382Z,15.9
2018-07-02T06:05:27.360Z,15.9
2018-07-02T06:06:29.752Z,15.9
2018-07-02T06:07:31.748Z,16
2018-07-02T06:08:33.742Z,16
2018-07-02T06:09:35.737Z,16.1
2018-07-02T06:10:37.741Z,16.1
2018-07-02T06:11:39.733Z,16.3
2018-07-02T06:12:42.009Z,16.4
2018-07-02T06:13:44.409Z,16.4
2018-07-02T06:14:46.405Z,16.4
2018-07-02T06:15:48.693Z,16.4
2018-07-02T06:16:50.994Z,16.4
2018-07-02T06:17:53.268Z,16.5
2018-07-02T06:18:55.581Z,16.5
2018-07-02T06:19:57.577Z,16.6
2018-07-02T06:20:59.574Z,16.7
2018-07-02T06:22:01.966Z,16.8
2018-07-02T06:23:03.952Z,16.8
2018-07-02T06:24:05.964Z,16.9
2018-07-02T06:25:08.261Z,17
2018-07-02T06:26:10.254Z,17
2018-07-02T06:27:12.256Z,17
2018-07-02T06:28:14.255Z,17
2018-07-02T06:29:16.261Z,17.1
2018-07-02T06:30:18.650Z,17.2
2018-07-02T06:31:20.933Z,17.3
2018-07-02T06:32:22.930Z,17.3
2018-07-02T06:33:24.928Z,17.4
2018-07-02T06:34:26.928Z,17.4
2018-07-02T06:35:29.223Z,17.4
2018-07-02T06:36:31.223Z,17.4
2018-07-02T06:37:33.235Z,17.4
2018-07-02T06:38:35.525Z,17.5
2018-07-02T06:39:37.516Z,17.5
2018-07-02T06:40:39.517Z,17.6
2018-07-02T06:41:41.792Z,17.7
2018-07-02T06:42:44.184Z,17.7
2018-07-02T06:43:46.189Z,17.7
2018-07-02T06:44:48.568Z,17.8
2018-07-02T06:45:50.585Z,17.8
2018-07-02T06:46:52.572Z,17.8
2018-07-02T06:47:54.574Z,17.8
2018-07-02T06:48:56.577Z,17.9
2018-07-02T06:49:58.869Z,17.9
2018-07-02T06:51:00.892Z,17.9
2018-07-02T06:52:03.552Z,18
2018-07-02T06:53:05.576Z,18
2018-07-02T06:54:07.646Z,18
2018-07-02T06:55:10.052Z,18
2018-07-02T06:56:12.543Z,18.1
2018-07-02T06:57:14.542Z,18.1
2018-07-02T06:58:16.606Z,18.2
2018-07-02T06:59:19.202Z,18.2
2018-07-02T07:00:21.208Z,18.2
2018-07-02T07:01:23.196Z,18.2
2018-07-02T07:02:25.199Z,18.2
2018-07-02T07:03:27.214Z,18.3
2018-07-02T07:04:29.597Z,18.3
2018-07-02T07:05:31.604Z,18.4
2018-07-02T07:06:33.661Z,18.4
2018-07-02T07:07:35.666Z,18.5
2018-07-02T07:08:37.685Z,18.5
2018-07-02T07:09:39.750Z,18.5
2018-07-02T07:10:41.767Z,18.6
2018-07-02T07:11:44.048Z,18.6
2018-07-02T07:12:46.124Z,18.7
2018-07-02T07:13:48.132Z,18.8
2018-07-02T07:14:50.139Z,18.8
2018-07-02T07:15:52.140Z,18.8
2018-07-02T07:16:54.143Z,18.9
2018-07-02T07:17:56.162Z,18.9
2018-07-02T07:18:58.168Z,19
2018-07-02T07:20:00.560Z,19
2018-07-02T07:21:02.571Z,19.1
2018-07-02T07:22:04.581Z,19.1
2018-07-02T07:23:06.598Z,19.2
2018-07-02T07:24:08.599Z,19.2
2018-07-02T07:25:10.609Z,19.2
2018-07-02T07:26:12.627Z,19.3
2018-07-02T07:27:14.611Z,19.3
2018-07-02T07:28:16.624Z,19.3
2018-07-02T07:29:18.637Z,19.4
2018-07-02T07:30:20.638Z,19.5
2018-07-02T07:31:22.753Z,19.5
2018-07-02T07:32:24.892Z,19.5
2018-07-02T07:33:26.895Z,19.6
2018-07-02T07:34:29.184Z,19.6
2018-07-02T07:35:31.197Z,19.7
2018-07-02T07:36:33.586Z,19.8
2018-07-02T07:37:35.871Z,19.8
2018-07-02T07:38:37.868Z,19.8
2018-07-02T07:39:40.000Z,19.9
2018-07-02T07:40:42.507Z,19.9
2018-07-02T07:41:44.826Z,20
2018-07-02T07:42:47.187Z,20
2018-07-02T07:43:49.176Z,20.1
2018-07-02T07:44:51.581Z,20
2018-07-02T07:45:53.779Z,20
2018-07-02T07:46:55.780Z,20.1
2018-07-02T07:47:57.784Z,20.1
2018-07-02T07:48:59.795Z,20.1
2018-07-02T07:50:01.918Z,20.2
2018-07-02T07:51:04.295Z,20.3
2018-07-02T07:52:06.312Z,20.4
2018-07-02T07:53:08.321Z,20.3
2018-07-02T07:54:10.571Z,20.3
2018-07-02T07:55:12.986Z,20.3
2018-07-02T07:56:14.998Z,20.3
2018-07-02T07:57:17.295Z,20.3
2018-07-02T07:58:19.318Z,20.2
2018-07-02T07:59:21.672Z,20.3
2018-07-02T08:00:23.714Z,20.3
2018-07-02T08:01:25.709Z,20.3
2018-07-02T08:02:27.754Z,20.2
2018-07-02T08:03:29.760Z,20.3
2018-07-02T08:04:31.776Z,20.1
2018-07-02T08:05:33.776Z,20.3
2018-07-02T08:06:35.777Z,20.4
2018-07-02T08:07:37.798Z,20.5
2018-07-02T08:08:39.795Z,20.5
2018-07-02T08:09:41.797Z,20.5
2018-07-02T08:10:43.826Z,20.4
2018-07-02T08:11:46.366Z,20.5
2018-07-02T08:12:48.378Z,20.5
2018-07-02T08:13:50.390Z,20.6
2018-07-02T08:14:52.379Z,20.6
2018-07-02T08:15:54.447Z,20.8
2018-07-02T08:16:56.953Z,20.8
2018-07-02T08:17:58.959Z,20.9
2018-07-02T08:19:01.608Z,20.9
2018-07-02T08:20:04.971Z,21
2018-07-02T08:21:07.081Z,21
2018-07-02T08:22:09.103Z,21
2018-07-02T08:23:11.123Z,20.9
2018-07-02T08:24:13.152Z,21
2018-07-02T08:25:15.159Z,21
2018-07-02T08:26:17.164Z,21.1
2018-07-02T08:27:19.520Z,21.1
2018-07-02T08:28:26.611Z,21.1
2018-07-02T08:29:28.922Z,21.1
2018-07-02T08:30:30.932Z,21
2018-07-02T08:31:32.941Z,21
2018-07-02T08:32:34.950Z,21.1
2018-07-02T08:33:36.938Z,21.3
2018-07-02T08:34:38.944Z,21.3
2018-07-02T08:35:41.160Z,21.3
2018-07-02T08:36:43.205Z,21.3
2018-07-02T08:37:45.347Z,21.4
2018-07-02T08:38:47.514Z,21.4
2018-07-02T08:39:49.547Z,21.4
2018-07-02T08:40:51.564Z,21.5
2018-07-02T08:41:53.567Z,21.7
2018-07-02T08:42:55.578Z,21.8
2018-07-02T08:43:57.592Z,21.7
2018-07-02T08:44:59.598Z,22
2018-07-02T08:46:01.897Z,21.9
2018-07-02T08:47:03.913Z,22
2018-07-02T08:48:06.203Z,22
2018-07-02T08:49:08.208Z,22.1
2018-07-02T08:50:10.216Z,22.1
2018-07-02T08:51:12.258Z,22.2
2018-07-02T08:52:14.338Z,22.2
2018-07-02T08:53:16.337Z,22.2
2018-07-02T08:54:18.742Z,22.4
2018-07-02T08:55:20.736Z,22.6
2018-07-02T08:56:23.057Z,22.6
2018-07-02T08:57:25.057Z,22.5
2018-07-02T08:58:27.352Z,22.4
2018-07-02T08:59:29.357Z,22.8
2018-07-02T09:00:31.397Z,22.8
2018-07-02T09:01:33.958Z,22.9
2018-07-02T09:02:36.038Z,22.9
2018-07-02T09:03:38.049Z,23.1
2018-07-02T09:04:40.450Z,22.8
2018-07-02T09:05:42.445Z,22.9
2018-07-02T09:06:44.913Z,22.9
2018-07-02T09:07:46.893Z,23
2018-07-02T09:08:49.487Z,23.3
2018-07-02T09:09:51.491Z,23.1
2018-07-02T09:10:54.453Z,23.4
2018-07-02T09:11:56.834Z,23.3
2018-07-02T09:12:58.843Z,23.2
2018-07-02T09:14:00.849Z,23.4
2018-07-02T09:15:02.857Z,23.5
2018-07-02T09:16:04.870Z,23.6
2018-07-02T09:17:06.926Z,23.3
2018-07-02T09:18:09.083Z,23.5
2018-07-02T09:19:11.521Z,23.9
2018-07-02T09:20:13.528Z,24
2018-07-02T09:21:15.537Z,24.5
2018-07-02T09:22:17.546Z,24.2
2018-07-02T09:23:19.569Z,24.5
2018-07-02T09:24:21.571Z,24.4
2018-07-02T09:25:23.575Z,24.2
2018-07-02T09:26:25.634Z,24.1
2018-07-02T09:27:27.625Z,23.9
2018-07-02T09:28:29.647Z,23.8
2018-07-02T09:29:31.655Z,24
2018-07-02T09:30:33.862Z,24.4
2018-07-02T09:31:35.887Z,24.3
2018-07-02T09:32:37.912Z,24.5
2018-07-02T09:33:40.672Z,24.8
2018-07-02T09:34:42.700Z,24.6
2018-07-02T09:35:44.985Z,24.6
2018-07-02T09:36:47.005Z,24.5
2018-07-02T09:37:49.751Z,24.6
2018-07-02T09:38:51.901Z,25
2018-07-02T09:39:54.521Z,25.1
2018-07-02T09:40:57.359Z,25.2
2018-07-02T09:42:04.342Z,25.1
2018-07-02T09:43:07.045Z,25.4
2018-07-02T09:44:09.045Z,25.1
2018-07-02T09:45:11.504Z,25
2018-07-02T09:46:13.455Z,25.3
2018-07-02T09:47:15.858Z,25.4
2018-07-02T09:48:17.871Z,25.7
2018-07-02T09:49:19.866Z,25.5
2018-07-02T09:50:21.882Z,25.2
2018-07-02T09:51:24.109Z,25.1
2018-07-02T09:52:25.892Z,24.7
2018-07-02T09:53:27.902Z,25
2018-07-02T09:54:29.909Z,25.1
2018-07-02T09:55:31.934Z,25.4
2018-07-02T09:56:33.942Z,25.6
2018-07-02T09:57:35.947Z,25.8
2018-07-02T09:58:38.271Z,25.9
2018-07-02T09:59:40.287Z,25.9
2018-07-02T10:00:42.384Z,25.9
2018-07-02T10:01:44.319Z,25.9
2018-07-02T10:02:46.628Z,25.8
2018-07-02T10:03:48.656Z,25.4
2018-07-02T10:04:50.651Z,25.9
2018-07-02T10:05:52.678Z,25.8
2018-07-02T10:06:54.991Z,25.9
2018-07-02T10:07:57.012Z,26
2018-07-02T10:08:59.048Z,25.2
2018-07-02T10:10:01.056Z,24.6
2018-07-02T10:11:03.459Z,24.6
2018-07-02T10:12:05.477Z,24.8
2018-07-02T10:13:07.477Z,25
2018-07-02T10:14:09.510Z,25.5
2018-07-02T10:15:11.518Z,25.4
2018-07-02T10:16:13.818Z,25.5
2018-07-02T10:17:15.821Z,25.8
2018-07-02T10:18:17.841Z,26.1
2018-07-02T10:19:19.863Z,25.7
2018-07-02T10:20:22.582Z,25.5
2018-07-02T10:21:24.592Z,25.1
2018-07-02T10:22:26.918Z,25.1
2018-07-02T10:23:28.929Z,25.3
2018-07-02T10:24:30.948Z,25.6
2018-07-02T10:25:32.968Z,25.7
2018-07-02T10:26:34.980Z,26
2018-07-02T10:27:37.002Z,25.3
2018-07-02T10:28:39.401Z,26
2018-07-02T10:29:41.428Z,25.6
2018-07-02T10:30:43.824Z,25.4
2018-07-02T10:31:46.060Z,25.4
2018-07-02T10:32:48.087Z,25.3
2018-07-02T10:33:50.100Z,25.4
2018-07-02T10:34:52.438Z,25.5
2018-07-02T10:35:54.775Z,25.9
2018-07-02T10:36:56.806Z,26.4
2018-07-02T10:37:58.819Z,26.2
2018-07-02T10:39:01.195Z,26.2
2018-07-02T10:40:03.515Z,26.4
2018-07-02T10:41:05.841Z,26.5
2018-07-02T10:42:07.861Z,26.4
2018-07-02T10:43:09.871Z,26.7
2018-07-02T10:44:12.269Z,26.6
2018-07-02T10:45:14.286Z,26.7
2018-07-02T10:46:16.321Z,27
2018-07-02T10:47:18.337Z,26.8
2018-07-02T10:48:20.352Z,26.7
2018-07-02T10:49:22.375Z,26.6
2018-07-02T10:50:24.428Z,26.6
2018-07-02T10:51:26.408Z,27.4
2018-07-02T10:52:28.714Z,27.6
2018-07-02T10:53:30.726Z,27.6
2018-07-02T10:54:32.747Z,27.6
2018-07-02T10:55:34.780Z,26.6
2018-07-02T10:56:37.138Z,25.8
2018-07-02T10:57:39.162Z,26
2018-07-02T10:58:41.195Z,25.9
2018-07-02T10:59:43.208Z,26
2018-07-02T11:00:45.223Z,26.3
2018-07-02T11:01:47.253Z,26.3
2018-07-02T11:02:49.272Z,26.5
2018-07-02T11:03:51.294Z,26.7
2018-07-02T11:04:53.325Z,26.6
2018-07-02T11:05:55.337Z,26.6
2018-07-02T11:06:57.636Z,27
2018-07-02T11:07:59.649Z,26.8
2018-07-02T11:09:01.953Z,26.9
2018-07-02T11:10:04.265Z,26.9
2018-07-02T11:11:06.273Z,26.8
2018-07-02T11:12:08.593Z,26.7
2018-07-02T11:13:11.292Z,26.9
2018-07-02T11:14:13.311Z,27.1
2018-07-02T11:15:15.337Z,27.2
2018-07-02T11:16:17.360Z,27.4
2018-07-02T11:17:19.401Z,26.7
2018-07-02T11:18:21.413Z,26.6
2018-07-02T11:19:23.423Z,25.8
2018-07-02T11:20:25.436Z,26
2018-07-02T11:21:27.462Z,25.5
2018-07-02T11:22:29.483Z,24.8
2018-07-02T11:23:31.514Z,24.7
2018-07-02T11:24:33.551Z,24.8
2018-07-02T11:25:35.956Z,24.9
2018-07-02T11:26:37.981Z,24.6
2018-07-02T11:27:40.007Z,25.1
2018-07-02T11:28:42.301Z,25.3
2018-07-02T11:29:44.317Z,25.3
2018-07-02T11:30:46.338Z,25.3
2018-07-02T11:31:49.036Z,25.5
2018-07-02T11:32:51.058Z,25.4
2018-07-02T11:33:53.084Z,25.5
2018-07-02T11:34:55.101Z,25.9
2018-07-02T11:35:57.123Z,25.8
2018-07-02T11:36:59.128Z,25.3
2018-07-02T11:38:01.152Z,25
2018-07-02T11:39:03.163Z,24.8
2018-07-02T11:40:05.175Z,25
2018-07-02T11:41:07.205Z,25.2
2018-07-02T11:42:09.216Z,25.6
2018-07-02T11:43:11.228Z,25.9
2018-07-02T11:44:13.318Z,25.8
2018-07-02T11:45:15.661Z,25.8
2018-07-02T11:46:18.066Z,26.2
2018-07-02T11:47:20.078Z,26.3
2018-07-02T11:48:22.090Z,26.1
2018-07-02T11:49:24.117Z,25.7
2018-07-02T11:50:26.114Z,26.1
2018-07-02T11:51:28.133Z,26
2018-07-02T11:52:30.158Z,25.7
2018-07-02T11:53:32.174Z,25.6
2018-07-02T11:54:34.197Z,25.9
2018-07-02T11:55:36.209Z,26.3
2018-07-02T11:56:38.235Z,26.9
2018-07-02T11:57:40.248Z,27.1
2018-07-02T11:58:42.651Z,26.8
2018-07-02T11:59:44.935Z,27.1
2018-07-02T12:00:46.960Z,26.1
2018-07-02T12:01:49.337Z,26.4
2018-07-02T12:02:51.310Z,27
2018-07-02T12:03:53.342Z,27.1
2018-07-02T12:04:55.360Z,26.9
2018-07-02T12:05:57.373Z,26.5
2018-07-02T12:06:59.396Z,25.9
2018-07-02T12:08:01.404Z,26.1
2018-07-02T12:09:04.425Z,25.8
2018-07-02T12:10:06.740Z,25.8
2018-07-02T12:11:08.751Z,25.6
2018-07-02T12:12:10.792Z,25.4
2018-07-02T12:13:12.822Z,25.8
2018-07-02T12:14:17.883Z,26
2018-07-02T12:15:19.944Z,26.2
2018-07-02T12:16:21.931Z,27.1
2018-07-02T12:17:23.956Z,26.6
2018-07-02T12:18:26.533Z,26.7
2018-07-02T12:19:28.939Z,26.8
2018-07-02T12:20:30.959Z,26.7
2018-07-02T12:21:33.263Z,26.8
2018-07-02T12:22:35.275Z,26.6
2018-07-02T12:23:37.295Z,26.5
2018-07-02T12:24:39.320Z,26.8
2018-07-02T12:25:41.343Z,27
2018-07-02T12:26:43.361Z,26.8
2018-07-02T12:27:45.449Z,26.8
2018-07-02T12:28:47.468Z,26.1
2018-07-02T12:29:49.495Z,26
2018-07-02T12:30:51.959Z,26.2
2018-07-02T12:31:53.997Z,26.6
2018-07-02T12:32:56.122Z,26.8
2018-07-02T12:33:58.185Z,26.6
2018-07-02T12:35:00.194Z,26.6
2018-07-02T12:36:02.900Z,26.9
2018-07-02T12:37:04.995Z,27.2
2018-07-02T12:38:07.284Z,27
2018-07-02T12:39:09.310Z,27
2018-07-02T12:40:11.771Z,27.1
2018-07-02T12:41:13.846Z,27.6
2018-07-02T12:42:16.198Z,27.6
2018-07-02T12:43:18.222Z,28.6
2018-07-02T12:44:20.533Z,27.8
2018-07-02T12:45:22.853Z,27.2
2018-07-02T12:46:24.972Z,27.2
2018-07-02T12:47:27.099Z,27.5
2018-07-02T12:48:29.174Z,27.2
2018-07-02T12:49:31.189Z,27.8
2018-07-02T12:50:33.198Z,27.8
2018-07-02T12:51:35.512Z,27.8
2018-07-02T12:52:37.530Z,28.5
2018-07-02T12:53:39.610Z,28.4
2018-07-02T12:54:41.637Z,27.7
2018-07-02T12:55:43.703Z,27.4
2018-07-02T12:56:45.731Z,27
2018-07-02T12:57:47.756Z,26.8
2018-07-02T12:58:49.795Z,27
2018-07-02T12:59:51.859Z,27.3
2018-07-02T13:00:53.873Z,27.5
2018-07-02T13:01:55.891Z,27.8
2018-07-02T13:02:57.910Z,27.9
2018-07-02T13:03:59.941Z,27.5
2018-07-02T13:05:02.259Z,27.1
2018-07-02T13:06:04.305Z,27.2
2018-07-02T13:07:06.318Z,26.5
2018-07-02T13:08:08.765Z,26.1
2018-07-02T13:09:10.900Z,26.3
2018-07-02T13:10:12.920Z,27.1
2018-07-02T13:11:14.998Z,27.3
2018-07-02T13:12:17.398Z,26.8
2018-07-02T13:13:19.415Z,27.5
2018-07-02T13:14:21.602Z,27.4
2018-07-02T13:15:24.013Z,27.2
2018-07-02T13:16:26.421Z,27.1
2018-07-02T13:17:28.748Z,26.8
2018-07-02T13:18:30.778Z,27
2018-07-02T13:19:32.986Z,27.2
2018-07-02T13:20:35.023Z,27.5
2018-07-02T13:21:37.034Z,26.8
2018-07-02T13:22:39.085Z,27.2
2018-07-02T13:23:41.280Z,27.4
2018-07-02T13:24:43.596Z,27.3
2018-07-02T13:25:45.644Z,26.9
2018-07-02T13:26:48.211Z,26.4
2018-07-02T13:27:50.597Z,26.3
2018-07-02T13:28:54.211Z,26.2
2018-07-02T13:29:57.447Z,26.5
2018-07-02T13:30:59.460Z,26.8
2018-07-02T13:32:01.567Z,27.5
2018-07-02T13:33:03.588Z,27.7
2018-07-02T13:34:05.988Z,27.1
2018-07-02T13:35:08.297Z,27.1
2018-07-02T13:36:10.626Z,27.3
2018-07-02T13:37:12.657Z,27.3
2018-07-02T13:38:14.679Z,27.7
2018-07-02T13:39:16.825Z,27.3
2018-07-02T13:40:18.998Z,26.8
2018-07-02T13:41:21.026Z,27.1
2018-07-02T13:42:23.202Z,27.3
2018-07-02T13:43:25.737Z,28.2
2018-07-02T13:44:27.892Z,28.3
2018-07-02T13:45:30.232Z,28.5
2018-07-02T13:46:32.839Z,28.5
2018-07-02T13:47:34.879Z,27.8
2018-07-02T13:48:37.467Z,27.3
2018-07-02T13:49:39.487Z,27.8
2018-07-02T13:50:41.518Z,27.3
2018-07-02T13:51:43.541Z,27.4
2018-07-02T13:52:45.577Z,27
2018-07-02T13:53:47.590Z,26.6
2018-07-02T13:54:49.622Z,26.4
2018-07-02T13:55:51.653Z,25.9
2018-07-02T13:56:54.118Z,26.2
2018-07-02T13:57:56.144Z,25.7
2018-07-02T13:58:58.157Z,26.7